sensor_id;sensor_type;location;lat;lon;timestamp;P1;durP1;ratioP1;P2;durP2;ratioP2
20906;SDS011;10613;50.966;5.814;2023-04-24T00:03:55;5.00;;;5.00;;
20906;SDS011;10613;50.966;5.814;2023-04-24T00:07:59;7.00;;;6.00;;
20906;SDS011;10613;50.966;5.814;2023-04-24T00:12:00;6.75;;;6.75;;
20906;SDS011;10613;50.966;5.814;2023-04-24T00:16:02;10.25;;;10.25;;
20906;SDS011;10613;50.966;5.814;2023-04-24T00:20:02;4.75;;;4.75;;
20906;SDS011;10613;50.966;5.814;2023-04-24T00:24:04;7.25;;;7.25;;
20906;SDS011;10613;50.966;5.814;2023-04-24T00:28:05;7.00;;;7.00;;
20906;SDS011;10613;50.966;5.814;2023-04-24T00:32:05;6.50;;;6.50;;
20906;SDS011;10613;50.966;5.814;2023-04-24T00:36:06;7.00;;;7.00;;
20906;SDS011;10613;50.966;5.814;2023-04-24T00:40:07;7.00;;;7.00;;
20906;SDS011;10613;50.966;5.814;2023-04-24T00:44:08;10.00;;;10.00;;
20906;SDS011;10613;50.966;5.814;2023-04-24T00:48:09;7.00;;;7.00;;
20906;SDS011;10613;50.966;5.814;2023-04-24T00:52:09;8.75;;;8.75;;
20906;SDS011;10613;50.966;5.814;2023-04-24T00:56:10;8.50;;;8.50;;
20906;SDS011;10613;50.966;5.814;2023-04-24T01:00:11;10.00;;;10.00;;
20906;SDS011;10613;50.966;5.814;2023-04-24T01:04:12;7.00;;;7.00;;
20906;SDS011;10613;50.966;5.814;2023-04-24T01:08:13;10.50;;;8.75;;
20906;SDS011;10613;50.966;5.814;2023-04-24T01:12:14;8.00;;;8.00;;
20906;SDS011;10613;50.966;5.814;2023-04-24T01:16:15;8.25;;;8.25;;
20906;SDS011;10613;50.966;5.814;2023-04-24T01:20:17;13.00;;;11.00;;
20906;SDS011;10613;50.966;5.814;2023-04-24T01:24:18;10.25;;;10.25;;
20906;SDS011;10613;50.966;5.814;2023-04-24T01:28:19;7.75;;;7.25;;
20906;SDS011;10613;50.966;5.814;2023-04-24T01:32:20;13.00;;;13.00;;
20906;SDS011;10613;50.966;5.814;2023-04-24T01:36:20;13.25;;;11.50;;
20906;SDS011;10613;50.966;5.814;2023-04-24T01:40:21;10.00;;;10.00;;
20906;SDS011;10613;50.966;5.814;2023-04-24T01:44:22;12.50;;;11.50;;
20906;SDS011;10613;50.966;5.814;2023-04-24T01:48:23;11.50;;;11.50;;
20906;SDS011;10613;50.966;5.814;2023-04-24T01:52:23;11.00;;;10.00;;
20906;SDS011;10613;50.966;5.814;2023-04-24T01:56:24;7.75;;;7.75;;
20906;SDS011;10613;50.966;5.814;2023-04-24T02:00:25;7.50;;;7.50;;
20906;SDS011;10613;50.966;5.814;2023-04-24T02:04:27;10.00;;;10.00;;
20906;SDS011;10613;50.966;5.814;2023-04-24T02:08:27;13.50;;;10.75;;
20906;SDS011;10613;50.966;5.814;2023-04-24T02:12:27;8.00;;;8.00;;
20906;SDS011;10613;50.966;5.814;2023-04-24T02:16:28;9.00;;;8.00;;
20906;SDS011;10613;50.966;5.814;2023-04-24T02:20:32;12.50;;;11.50;;
20906;SDS011;10613;50.966;5.814;2023-04-24T02:24:34;8.00;;;8.00;;
20906;SDS011;10613;50.966;5.814;2023-04-24T02:28:34;9.00;;;7.75;;
20906;SDS011;10613;50.966;5.814;2023-04-24T02:32:35;11.00;;;10.00;;
20906;SDS011;10613;50.966;5.814;2023-04-24T02:36:35;11.00;;;10.00;;
20906;SDS011;10613;50.966;5.814;2023-04-24T02:40:36;14.25;;;14.25;;
20906;SDS011;10613;50.966;5.814;2023-04-24T02:44:36;10.00;;;10.00;;
20906;SDS011;10613;50.966;5.814;2023-04-24T02:48:37;11.00;;;10.50;;
20906;SDS011;10613;50.966;5.814;2023-04-24T02:52:37;10.00;;;10.00;;
20906;SDS011;10613;50.966;5.814;2023-04-24T02:56:37;6.50;;;6.50;;
20906;SDS011;10613;50.966;5.814;2023-04-24T03:00:40;14.25;;;14.00;;
20906;SDS011;10613;50.966;5.814;2023-04-24T03:04:40;10.25;;;9.00;;
20906;SDS011;10613;50.966;5.814;2023-04-24T03:08:42;10.25;;;8.75;;
20906;SDS011;10613;50.966;5.814;2023-04-24T03:12:45;7.25;;;7.25;;
20906;SDS011;10613;50.966;5.814;2023-04-24T03:16:45;7.75;;;7.75;;
20906;SDS011;10613;50.966;5.814;2023-04-24T03:20:45;10.00;;;10.00;;
20906;SDS011;10613;50.966;5.814;2023-04-24T03:24:47;12.00;;;9.50;;
20906;SDS011;10613;50.966;5.814;2023-04-24T03:28:51;7.75;;;7.75;;
20906;SDS011;10613;50.966;5.814;2023-04-24T03:32:51;9.75;;;8.75;;
20906;SDS011;10613;50.966;5.814;2023-04-24T03:36:57;7.75;;;7.00;;
20906;SDS011;10613;50.966;5.814;2023-04-24T03:40:58;10.75;;;10.75;;
20906;SDS011;10613;50.966;5.814;2023-04-24T03:45:19;11.00;;;11.00;;
20906;SDS011;10613;50.966;5.814;2023-04-24T03:49:23;7.75;;;6.50;;
20906;SDS011;10613;50.966;5.814;2023-04-24T03:53:24;8.75;;;8.75;;
20906;SDS011;10613;50.966;5.814;2023-04-24T03:57:24;10.00;;;10.00;;
20906;SDS011;10613;50.966;5.814;2023-04-24T04:01:42;13.00;;;11.00;;
20906;SDS011;10613;50.966;5.814;2023-04-24T04:05:49;11.50;;;11.50;;
20906;SDS011;10613;50.966;5.814;2023-04-24T04:09:49;9.00;;;9.00;;
20906;SDS011;10613;50.966;5.814;2023-04-24T04:13:50;10.00;;;10.00;;
20906;SDS011;10613;50.966;5.814;2023-04-24T04:17:53;8.25;;;8.00;;
20906;SDS011;10613;50.966;5.814;2023-04-24T04:21:54;16.75;;;15.25;;
20906;SDS011;10613;50.966;5.814;2023-04-24T04:26:25;14.50;;;14.50;;
20906;SDS011;10613;50.966;5.814;2023-04-24T04:30:35;12.25;;;10.25;;
20906;SDS011;10613;50.966;5.814;2023-04-24T04:34:38;6.00;;;6.00;;
20906;SDS011;10613;50.966;5.814;2023-04-24T04:38:42;9.00;;;7.50;;
20906;SDS011;10613;50.966;5.814;2023-04-24T04:42:55;8.25;;;8.25;;
20906;SDS011;10613;50.966;5.814;2023-04-24T04:46:58;10.75;;;10.75;;
20906;SDS011;10613;50.966;5.814;2023-04-24T04:51:01;8.75;;;8.75;;
20906;SDS011;10613;50.966;5.814;2023-04-24T04:55:02;11.00;;;11.00;;
20906;SDS011;10613;50.966;5.814;2023-04-24T04:59:23;7.00;;;7.00;;
20906;SDS011;10613;50.966;5.814;2023-04-24T05:03:29;9.00;;;9.00;;
20906;SDS011;10613;50.966;5.814;2023-04-24T05:07:36;11.75;;;10.00;;
20906;SDS011;10613;50.966;5.814;2023-04-24T05:11:36;11.75;;;11.75;;
20906;SDS011;10613;50.966;5.814;2023-04-24T05:15:37;11.25;;;11.25;;
20906;SDS011;10613;50.966;5.814;2023-04-24T05:19:38;7.50;;;7.50;;
20906;SDS011;10613;50.966;5.814;2023-04-24T05:23:39;9.00;;;7.00;;
20906;SDS011;10613;50.966;5.814;2023-04-24T05:27:40;10.00;;;9.00;;
20906;SDS011;10613;50.966;5.814;2023-04-24T05:31:47;13.50;;;12.50;;
20906;SDS011;10613;50.966;5.814;2023-04-24T05:35:48;11.00;;;11.00;;
20906;SDS011;10613;50.966;5.814;2023-04-24T05:39:49;9.00;;;9.00;;
20906;SDS011;10613;50.966;5.814;2023-04-24T05:43:49;9.25;;;9.25;;
20906;SDS011;10613;50.966;5.814;2023-04-24T05:47:50;6.50;;;6.50;;
20906;SDS011;10613;50.966;5.814;2023-04-24T05:51:52;7.00;;;7.00;;
20906;SDS011;10613;50.966;5.814;2023-04-24T05:55:52;8.75;;;8.75;;
20906;SDS011;10613;50.966;5.814;2023-04-24T05:59:53;7.50;;;7.50;;
20906;SDS011;10613;50.966;5.814;2023-04-24T06:03:55;10.00;;;9.75;;
20906;SDS011;10613;50.966;5.814;2023-04-24T06:07:56;10.00;;;9.00;;
20906;SDS011;10613;50.966;5.814;2023-04-24T06:11:59;9.75;;;9.75;;
20906;SDS011;10613;50.966;5.814;2023-04-24T06:16:07;8.50;;;8.50;;
20906;SDS011;10613;50.966;5.814;2023-04-24T06:20:11;7.00;;;7.00;;
20906;SDS011;10613;50.966;5.814;2023-04-24T06:24:13;7.00;;;7.00;;
20906;SDS011;10613;50.966;5.814;2023-04-24T06:28:14;6.50;;;6.50;;
20906;SDS011;10613;50.966;5.814;2023-04-24T06:32:14;7.00;;;7.00;;
20906;SDS011;10613;50.966;5.814;2023-04-24T06:36:15;8.00;;;8.00;;
20906;SDS011;10613;50.966;5.814;2023-04-24T06:40:15;16.25;;;16.25;;
20906;SDS011;10613;50.966;5.814;2023-04-24T06:44:18;9.50;;;9.50;;
20906;SDS011;10613;50.966;5.814;2023-04-24T06:48:19;8.00;;;8.00;;
20906;SDS011;10613;50.966;5.814;2023-04-24T06:52:19;10.00;;;10.00;;
20906;SDS011;10613;50.966;5.814;2023-04-24T06:56:19;10.00;;;10.00;;
20906;SDS011;10613;50.966;5.814;2023-04-24T07:00:20;9.25;;;9.25;;
20906;SDS011;10613;50.966;5.814;2023-04-24T07:04:20;9.00;;;9.00;;
20906;SDS011;10613;50.966;5.814;2023-04-24T07:08:21;9.25;;;9.25;;
20906;SDS011;10613;50.966;5.814;2023-04-24T07:12:23;9.50;;;9.50;;
20906;SDS011;10613;50.966;5.814;2023-04-24T07:16:23;10.00;;;10.00;;
20906;SDS011;10613;50.966;5.814;2023-04-24T07:20:24;7.50;;;7.50;;
20906;SDS011;10613;50.966;5.814;2023-04-24T07:24:24;6.00;;;6.00;;
20906;SDS011;10613;50.966;5.814;2023-04-24T07:28:25;10.50;;;10.50;;
20906;SDS011;10613;50.966;5.814;2023-04-24T07:32:25;6.50;;;6.50;;
20906;SDS011;10613;50.966;5.814;2023-04-24T07:36:26;7.00;;;7.00;;
20906;SDS011;10613;50.966;5.814;2023-04-24T07:40:27;9.00;;;9.00;;
20906;SDS011;10613;50.966;5.814;2023-04-24T07:44:27;5.00;;;5.00;;
20906;SDS011;10613;50.966;5.814;2023-04-24T07:48:27;6.50;;;6.50;;
20906;SDS011;10613;50.966;5.814;2023-04-24T07:52:28;6.75;;;6.75;;
20906;SDS011;10613;50.966;5.814;2023-04-24T07:56:28;4.50;;;4.50;;
20906;SDS011;10613;50.966;5.814;2023-04-24T08:00:31;4.75;;;4.75;;
20906;SDS011;10613;50.966;5.814;2023-04-24T08:04:31;7.00;;;7.00;;
20906;SDS011;10613;50.966;5.814;2023-04-24T08:08:32;4.00;;;4.00;;
20906;SDS011;10613;50.966;5.814;2023-04-24T08:12:32;8.00;;;8.00;;
20906;SDS011;10613;50.966;5.814;2023-04-24T08:16:33;4.00;;;4.00;;
20906;SDS011;10613;50.966;5.814;2023-04-24T08:20:33;5.00;;;5.00;;
20906;SDS011;10613;50.966;5.814;2023-04-24T08:24:33;4.25;;;4.25;;
20906;SDS011;10613;50.966;5.814;2023-04-24T08:28:34;4.00;;;4.00;;
20906;SDS011;10613;50.966;5.814;2023-04-24T08:32:35;7.25;;;7.25;;
20906;SDS011;10613;50.966;5.814;2023-04-24T08:36:36;5.00;;;5.00;;
20906;SDS011;10613;50.966;5.814;2023-04-24T08:40:36;5.00;;;5.00;;
20906;SDS011;10613;50.966;5.814;2023-04-24T08:44:36;4.50;;;4.50;;
20906;SDS011;10613;50.966;5.814;2023-04-24T08:48:37;5.00;;;5.00;;
20906;SDS011;10613;50.966;5.814;2023-04-24T08:52:38;4.00;;;4.00;;
20906;SDS011;10613;50.966;5.814;2023-04-24T08:56:38;7.00;;;7.00;;
20906;SDS011;10613;50.966;5.814;2023-04-24T09:00:40;6.50;;;6.50;;
20906;SDS011;10613;50.966;5.814;2023-04-24T09:04:47;5.00;;;5.00;;
20906;SDS011;10613;50.966;5.814;2023-04-24T09:08:47;4.75;;;4.75;;
20906;SDS011;10613;50.966;5.814;2023-04-24T09:12:50;4.75;;;4.75;;
20906;SDS011;10613;50.966;5.814;2023-04-24T09:16:51;5.00;;;4.00;;
20906;SDS011;10613;50.966;5.814;2023-04-24T09:21:02;4.00;;;4.00;;
20906;SDS011;10613;50.966;5.814;2023-04-24T09:25:06;4.50;;;4.50;;
20906;SDS011;10613;50.966;5.814;2023-04-24T09:29:07;5.00;;;5.00;;
20906;SDS011;10613;50.966;5.814;2023-04-24T09:37:11;6.50;;;6.50;;
20906;SDS011;10613;50.966;5.814;2023-04-24T09:41:13;7.00;;;7.00;;
20906;SDS011;10613;50.966;5.814;2023-04-24T09:45:13;7.75;;;7.00;;
20906;SDS011;10613;50.966;5.814;2023-04-24T09:49:15;5.00;;;5.00;;
20906;SDS011;10613;50.966;5.814;2023-04-24T09:53:16;5.00;;;5.00;;
20906;SDS011;10613;50.966;5.814;2023-04-24T09:57:23;7.50;;;7.50;;
20906;SDS011;10613;50.966;5.814;2023-04-24T10:01:30;5.00;;;5.00;;
20906;SDS011;10613;50.966;5.814;2023-04-24T10:05:35;4.50;;;4.50;;
20906;SDS011;10613;50.966;5.814;2023-04-24T10:09:35;4.00;;;4.00;;
20906;SDS011;10613;50.966;5.814;2023-04-24T10:13:36;5.00;;;5.00;;
20906;SDS011;10613;50.966;5.814;2023-04-24T10:17:36;6.50;;;6.50;;
20906;SDS011;10613;50.966;5.814;2023-04-24T10:21:37;4.25;;;4.25;;
20906;SDS011;10613;50.966;5.814;2023-04-24T10:25:42;5.50;;;5.50;;
20906;SDS011;10613;50.966;5.814;2023-04-24T10:29:43;2.00;;;2.00;;
20906;SDS011;10613;50.966;5.814;2023-04-24T10:33:44;7.00;;;7.00;;
20906;SDS011;10613;50.966;5.814;2023-04-24T10:37:48;3.50;;;3.50;;
20906;SDS011;10613;50.966;5.814;2023-04-24T10:41:49;6.00;;;6.00;;
20906;SDS011;10613;50.966;5.814;2023-04-24T10:46:08;4.00;;;4.00;;
20906;SDS011;10613;50.966;5.814;2023-04-24T10:50:10;4.75;;;4.75;;
20906;SDS011;10613;50.966;5.814;2023-04-24T10:54:27;4.50;;;4.50;;
20906;SDS011;10613;50.966;5.814;2023-04-24T11:02:48;4.00;;;4.00;;
20906;SDS011;10613;50.966;5.814;2023-04-24T11:06:50;5.00;;;5.00;;
20906;SDS011;10613;50.966;5.814;2023-04-24T11:11:02;4.00;;;4.00;;
20906;SDS011;10613;50.966;5.814;2023-04-24T11:15:03;8.25;;;8.25;;
20906;SDS011;10613;50.966;5.814;2023-04-24T11:19:17;5.00;;;5.00;;
20906;SDS011;10613;50.966;5.814;2023-04-24T11:23:17;4.25;;;4.25;;
20906;SDS011;10613;50.966;5.814;2023-04-24T11:27:19;3.00;;;3.00;;
20906;SDS011;10613;50.966;5.814;2023-04-24T11:31:39;7.25;;;7.25;;
20906;SDS011;10613;50.966;5.814;2023-04-24T11:35:40;5.00;;;4.50;;
20906;SDS011;10613;50.966;5.814;2023-04-24T11:39:40;4.00;;;4.00;;
20906;SDS011;10613;50.966;5.814;2023-04-24T11:43:41;6.00;;;6.00;;
20906;SDS011;10613;50.966;5.814;2023-04-24T11:47:42;4.00;;;4.00;;
20906;SDS011;10613;50.966;5.814;2023-04-24T11:51:42;5.50;;;5.50;;
20906;SDS011;10613;50.966;5.814;2023-04-24T11:55:43;3.50;;;3.50;;
20906;SDS011;10613;50.966;5.814;2023-04-24T11:59:43;6.25;;;5.75;;
20906;SDS011;10613;50.966;5.814;2023-04-24T12:03:47;4.50;;;4.50;;
20906;SDS011;10613;50.966;5.814;2023-04-24T12:07:48;6.25;;;6.25;;
20906;SDS011;10613;50.966;5.814;2023-04-24T12:11:55;5.00;;;5.00;;
20906;SDS011;10613;50.966;5.814;2023-04-24T12:15:57;5.00;;;4.00;;
20906;SDS011;10613;50.966;5.814;2023-04-24T12:20:00;4.75;;;4.75;;
20906;SDS011;10613;50.966;5.814;2023-04-24T12:24:01;5.50;;;5.00;;
20906;SDS011;10613;50.966;5.814;2023-04-24T12:32:05;4.50;;;4.50;;
20906;SDS011;10613;50.966;5.814;2023-04-24T12:36:15;5.00;;;5.00;;
20906;SDS011;10613;50.966;5.814;2023-04-24T12:40:16;6.00;;;5.25;;
20906;SDS011;10613;50.966;5.814;2023-04-24T12:44:17;4.50;;;4.50;;
20906;SDS011;10613;50.966;5.814;2023-04-24T12:48:18;6.25;;;6.25;;
20906;SDS011;10613;50.966;5.814;2023-04-24T12:52:20;6.00;;;6.00;;
20906;SDS011;10613;50.966;5.814;2023-04-24T12:56:21;6.50;;;6.50;;
20906;SDS011;10613;50.966;5.814;2023-04-24T13:00:22;5.00;;;5.00;;
20906;SDS011;10613;50.966;5.814;2023-04-24T13:04:22;7.00;;;7.00;;
20906;SDS011;10613;50.966;5.814;2023-04-24T13:08:22;5.50;;;5.50;;
20906;SDS011;10613;50.966;5.814;2023-04-24T13:12:23;6.50;;;6.50;;
20906;SDS011;10613;50.966;5.814;2023-04-24T13:16:26;6.00;;;6.00;;
20906;SDS011;10613;50.966;5.814;2023-04-24T13:20:27;5.00;;;5.00;;
20906;SDS011;10613;50.966;5.814;2023-04-24T13:24:27;5.00;;;5.00;;
20906;SDS011;10613;50.966;5.814;2023-04-24T13:28:27;6.00;;;6.00;;
20906;SDS011;10613;50.966;5.814;2023-04-24T13:32:29;4.25;;;4.25;;
20906;SDS011;10613;50.966;5.814;2023-04-24T13:36:30;8.50;;;8.50;;
20906;SDS011;10613;50.966;5.814;2023-04-24T13:40:31;5.00;;;5.00;;
20906;SDS011;10613;50.966;5.814;2023-04-24T13:44:32;9.00;;;8.00;;
20906;SDS011;10613;50.966;5.814;2023-04-24T13:48:32;5.25;;;5.25;;
20906;SDS011;10613;50.966;5.814;2023-04-24T13:52:33;8.00;;;8.00;;
20906;SDS011;10613;50.966;5.814;2023-04-24T13:56:33;5.50;;;5.50;;
20906;SDS011;10613;50.966;5.814;2023-04-24T14:00:33;5.00;;;5.00;;
20906;SDS011;10613;50.966;5.814;2023-04-24T14:04:34;2.50;;;2.50;;
20906;SDS011;10613;50.966;5.814;2023-04-24T14:08:34;4.00;;;4.00;;
20906;SDS011;10613;50.966;5.814;2023-04-24T14:12:35;4.00;;;4.00;;
20906;SDS011;10613;50.966;5.814;2023-04-24T14:16:35;4.00;;;4.00;;
20906;SDS011;10613;50.966;5.814;2023-04-24T14:20:36;3.50;;;3.50;;
20906;SDS011;10613;50.966;5.814;2023-04-24T14:24:36;4.00;;;4.00;;
20906;SDS011;10613;50.966;5.814;2023-04-24T14:28:36;4.25;;;4.25;;
20906;SDS011;10613;50.966;5.814;2023-04-24T14:32:37;4.25;;;4.25;;
20906;SDS011;10613;50.966;5.814;2023-04-24T14:36:38;4.75;;;4.75;;
20906;SDS011;10613;50.966;5.814;2023-04-24T14:40:38;4.00;;;4.00;;
20906;SDS011;10613;50.966;5.814;2023-04-24T14:44:38;2.00;;;2.00;;
20906;SDS011;10613;50.966;5.814;2023-04-24T14:48:39;3.50;;;3.50;;
20906;SDS011;10613;50.966;5.814;2023-04-24T14:52:39;4.00;;;4.00;;
20906;SDS011;10613;50.966;5.814;2023-04-24T14:56:40;4.00;;;4.00;;
20906;SDS011;10613;50.966;5.814;2023-04-24T15:00:41;5.00;;;5.00;;
20906;SDS011;10613;50.966;5.814;2023-04-24T15:04:41;5.00;;;5.00;;
20906;SDS011;10613;50.966;5.814;2023-04-24T15:08:41;4.00;;;4.00;;
20906;SDS011;10613;50.966;5.814;2023-04-24T15:12:42;4.50;;;4.50;;
20906;SDS011;10613;50.966;5.814;2023-04-24T15:16:42;3.00;;;3.00;;
20906;SDS011;10613;50.966;5.814;2023-04-24T15:20:43;2.50;;;2.50;;
20906;SDS011;10613;50.966;5.814;2023-04-24T15:24:43;2.50;;;2.50;;
20906;SDS011;10613;50.966;5.814;2023-04-24T15:28:44;4.75;;;4.75;;
20906;SDS011;10613;50.966;5.814;2023-04-24T15:32:46;2.00;;;2.00;;
20906;SDS011;10613;50.966;5.814;2023-04-24T15:36:47;1.50;;;1.50;;
20906;SDS011;10613;50.966;5.814;2023-04-24T15:40:47;1.00;;;1.00;;
20906;SDS011;10613;50.966;5.814;2023-04-24T15:44:48;1.75;;;1.75;;
20906;SDS011;10613;50.966;5.814;2023-04-24T15:48:50;4.00;;;4.00;;
20906;SDS011;10613;50.966;5.814;2023-04-24T15:52:50;1.00;;;1.00;;
20906;SDS011;10613;50.966;5.814;2023-04-24T15:56:51;2.50;;;2.50;;
20906;SDS011;10613;50.966;5.814;2023-04-24T16:00:51;1.00;;;1.00;;
20906;SDS011;10613;50.966;5.814;2023-04-24T16:04:53;2.00;;;2.00;;
20906;SDS011;10613;50.966;5.814;2023-04-24T16:08:53;4.75;;;4.75;;
20906;SDS011;10613;50.966;5.814;2023-04-24T16:12:54;2.00;;;2.00;;
20906;SDS011;10613;50.966;5.814;2023-04-24T16:16:54;2.50;;;2.50;;
20906;SDS011;10613;50.966;5.814;2023-04-24T16:20:55;2.00;;;2.00;;
20906;SDS011;10613;50.966;5.814;2023-04-24T16:24:55;2.00;;;2.00;;
20906;SDS011;10613;50.966;5.814;2023-04-24T16:28:57;2.00;;;2.00;;
20906;SDS011;10613;50.966;5.814;2023-04-24T16:32:58;2.00;;;2.00;;
20906;SDS011;10613;50.966;5.814;2023-04-24T16:36:58;2.00;;;2.00;;
20906;SDS011;10613;50.966;5.814;2023-04-24T16:40:58;2.00;;;2.00;;
20906;SDS011;10613;50.966;5.814;2023-04-24T16:44:59;1.00;;;1.00;;
20906;SDS011;10613;50.966;5.814;2023-04-24T16:48:59;5.00;;;5.00;;
20906;SDS011;10613;50.966;5.814;2023-04-24T16:52:59;2.00;;;2.00;;
20906;SDS011;10613;50.966;5.814;2023-04-24T16:57:00;4.00;;;4.00;;
20906;SDS011;10613;50.966;5.814;2023-04-24T17:01:01;4.00;;;4.00;;
20906;SDS011;10613;50.966;5.814;2023-04-24T17:05:01;4.00;;;4.00;;
20906;SDS011;10613;50.966;5.814;2023-04-24T17:09:01;5.00;;;5.00;;
20906;SDS011;10613;50.966;5.814;2023-04-24T17:13:02;3.00;;;3.00;;
20906;SDS011;10613;50.966;5.814;2023-04-24T17:17:03;4.00;;;4.00;;
20906;SDS011;10613;50.966;5.814;2023-04-24T17:21:03;4.00;;;4.00;;
20906;SDS011;10613;50.966;5.814;2023-04-24T17:25:07;4.00;;;4.00;;
20906;SDS011;10613;50.966;5.814;2023-04-24T17:29:07;4.25;;;4.25;;
20906;SDS011;10613;50.966;5.814;2023-04-24T17:33:07;4.50;;;4.50;;
20906;SDS011;10613;50.966;5.814;2023-04-24T17:37:08;4.50;;;4.50;;
20906;SDS011;10613;50.966;5.814;2023-04-24T17:41:08;2.50;;;2.50;;
20906;SDS011;10613;50.966;5.814;2023-04-24T17:45:09;3.50;;;3.50;;
20906;SDS011;10613;50.966;5.814;2023-04-24T17:49:09;4.00;;;4.00;;
20906;SDS011;10613;50.966;5.814;2023-04-24T17:53:10;5.00;;;5.00;;
20906;SDS011;10613;50.966;5.814;2023-04-24T17:57:10;3.00;;;3.00;;
20906;SDS011;10613;50.966;5.814;2023-04-24T18:01:11;4.00;;;4.00;;
20906;SDS011;10613;50.966;5.814;2023-04-24T18:05:11;4.50;;;4.50;;
20906;SDS011;10613;50.966;5.814;2023-04-24T18:09:12;4.00;;;4.00;;
20906;SDS011;10613;50.966;5.814;2023-04-24T18:13:14;4.00;;;4.00;;
20906;SDS011;10613;50.966;5.814;2023-04-24T18:17:15;4.50;;;4.50;;
20906;SDS011;10613;50.966;5.814;2023-04-24T18:21:15;3.50;;;3.50;;
20906;SDS011;10613;50.966;5.814;2023-04-24T18:25:15;1.00;;;1.00;;
20906;SDS011;10613;50.966;5.814;2023-04-24T18:29:16;3.50;;;3.50;;
20906;SDS011;10613;50.966;5.814;2023-04-24T18:33:17;2.00;;;2.00;;
20906;SDS011;10613;50.966;5.814;2023-04-24T18:37:18;2.00;;;2.00;;
20906;SDS011;10613;50.966;5.814;2023-04-24T18:41:18;3.00;;;1.50;;
20906;SDS011;10613;50.966;5.814;2023-04-24T18:45:18;1.25;;;1.25;;
20906;SDS011;10613;50.966;5.814;2023-04-24T18:49:19;2.00;;;2.00;;
20906;SDS011;10613;50.966;5.814;2023-04-24T18:53:19;2.00;;;2.00;;
20906;SDS011;10613;50.966;5.814;2023-04-24T18:57:19;5.00;;;5.00;;
20906;SDS011;10613;50.966;5.814;2023-04-24T19:01:22;1.25;;;1.25;;
20906;SDS011;10613;50.966;5.814;2023-04-24T19:05:22;2.00;;;2.00;;
20906;SDS011;10613;50.966;5.814;2023-04-24T19:09:23;2.00;;;2.00;;
20906;SDS011;10613;50.966;5.814;2023-04-24T19:13:23;2.00;;;2.00;;
20906;SDS011;10613;50.966;5.814;2023-04-24T19:17:23;4.00;;;4.00;;
20906;SDS011;10613;50.966;5.814;2023-04-24T19:21:24;2.00;;;2.00;;
20906;SDS011;10613;50.966;5.814;2023-04-24T19:25:25;4.25;;;4.25;;
20906;SDS011;10613;50.966;5.814;2023-04-24T19:29:25;2.00;;;2.00;;
20906;SDS011;10613;50.966;5.814;2023-04-24T19:33:26;1.00;;;1.00;;
20906;SDS011;10613;50.966;5.814;2023-04-24T19:37:26;2.00;;;2.00;;
20906;SDS011;10613;50.966;5.814;2023-04-24T19:41:27;3.50;;;3.50;;
20906;SDS011;10613;50.966;5.814;2023-04-24T19:45:27;2.00;;;2.00;;
20906;SDS011;10613;50.966;5.814;2023-04-24T19:49:27;2.00;;;2.00;;
20906;SDS011;10613;50.966;5.814;2023-04-24T19:53:28;1.75;;;1.75;;
20906;SDS011;10613;50.966;5.814;2023-04-24T19:57:29;4.75;;;3.50;;
20906;SDS011;10613;50.966;5.814;2023-04-24T20:01:29;4.00;;;4.00;;
20906;SDS011;10613;50.966;5.814;2023-04-24T20:05:31;2.00;;;2.00;;
20906;SDS011;10613;50.966;5.814;2023-04-24T20:09:31;4.75;;;4.75;;
20906;SDS011;10613;50.966;5.814;2023-04-24T20:13:32;4.00;;;4.00;;
20906;SDS011;10613;50.966;5.814;2023-04-24T20:17:32;4.00;;;4.00;;
20906;SDS011;10613;50.966;5.814;2023-04-24T20:21:32;4.00;;;4.00;;
20906;SDS011;10613;50.966;5.814;2023-04-24T20:25:33;4.00;;;4.00;;
20906;SDS011;10613;50.966;5.814;2023-04-24T20:29:34;4.00;;;4.00;;
20906;SDS011;10613;50.966;5.814;2023-04-24T20:33:37;4.00;;;4.00;;
20906;SDS011;10613;50.966;5.814;2023-04-24T20:37:40;4.00;;;4.00;;
20906;SDS011;10613;50.966;5.814;2023-04-24T20:41:41;4.00;;;4.00;;
20906;SDS011;10613;50.966;5.814;2023-04-24T20:45:43;2.00;;;2.00;;
20906;SDS011;10613;50.966;5.814;2023-04-24T20:49:43;5.00;;;5.00;;
20906;SDS011;10613;50.966;5.814;2023-04-24T20:53:44;4.00;;;4.00;;
20906;SDS011;10613;50.966;5.814;2023-04-24T20:57:44;4.25;;;4.25;;
20906;SDS011;10613;50.966;5.814;2023-04-24T21:01:44;4.50;;;4.50;;
20906;SDS011;10613;50.966;5.814;2023-04-24T21:05:47;4.75;;;4.75;;
20906;SDS011;10613;50.966;5.814;2023-04-24T21:09:47;6.50;;;6.50;;
20906;SDS011;10613;50.966;5.814;2023-04-24T21:13:48;3.50;;;3.50;;
20906;SDS011;10613;50.966;5.814;2023-04-24T21:17:48;1.75;;;1.75;;
20906;SDS011;10613;50.966;5.814;2023-04-24T21:21:48;2.00;;;2.00;;
20906;SDS011;10613;50.966;5.814;2023-04-24T21:25:49;2.00;;;2.00;;
20906;SDS011;10613;50.966;5.814;2023-04-24T21:29:50;1.75;;;1.75;;
20906;SDS011;10613;50.966;5.814;2023-04-24T21:33:51;1.75;;;1.75;;
20906;SDS011;10613;50.966;5.814;2023-04-24T21:37:51;2.00;;;2.00;;
20906;SDS011;10613;50.966;5.814;2023-04-24T21:41:51;3.50;;;2.00;;
20906;SDS011;10613;50.966;5.814;2023-04-24T21:45:52;1.00;;;1.00;;
20906;SDS011;10613;50.966;5.814;2023-04-24T21:49:52;3.00;;;3.00;;
20906;SDS011;10613;50.966;5.814;2023-04-24T21:53:52;2.00;;;2.00;;
20906;SDS011;10613;50.966;5.814;2023-04-24T21:57:53;2.00;;;2.00;;
20906;SDS011;10613;50.966;5.814;2023-04-24T22:01:53;4.00;;;2.00;;
20906;SDS011;10613;50.966;5.814;2023-04-24T22:05:54;1.00;;;1.00;;
20906;SDS011;10613;50.966;5.814;2023-04-24T22:09:55;4.00;;;4.00;;
20906;SDS011;10613;50.966;5.814;2023-04-24T22:13:55;4.50;;;4.50;;
20906;SDS011;10613;50.966;5.814;2023-04-24T22:17:56;2.00;;;2.00;;
20906;SDS011;10613;50.966;5.814;2023-04-24T22:21:56;4.00;;;4.00;;
20906;SDS011;10613;50.966;5.814;2023-04-24T22:25:57;4.00;;;4.00;;
20906;SDS011;10613;50.966;5.814;2023-04-24T22:29:57;4.00;;;4.00;;
20906;SDS011;10613;50.966;5.814;2023-04-24T22:33:57;5.00;;;5.00;;
20906;SDS011;10613;50.966;5.814;2023-04-24T22:37:58;4.25;;;4.25;;
20906;SDS011;10613;50.966;5.814;2023-04-24T22:41:58;4.25;;;4.25;;
20906;SDS011;10613;50.966;5.814;2023-04-24T22:45:58;3.50;;;3.00;;
20906;SDS011;10613;50.966;5.814;2023-04-24T22:49:59;4.00;;;4.00;;
20906;SDS011;10613;50.966;5.814;2023-04-24T22:54:00;4.00;;;4.00;;
20906;SDS011;10613;50.966;5.814;2023-04-24T22:58:01;2.00;;;2.00;;
20906;SDS011;10613;50.966;5.814;2023-04-24T23:02:01;3.00;;;3.00;;
20906;SDS011;10613;50.966;5.814;2023-04-24T23:06:02;6.25;;;6.25;;
20906;SDS011;10613;50.966;5.814;2023-04-24T23:10:03;4.00;;;4.00;;
20906;SDS011;10613;50.966;5.814;2023-04-24T23:14:04;3.50;;;3.50;;
20906;SDS011;10613;50.966;5.814;2023-04-24T23:18:05;2.00;;;2.00;;
20906;SDS011;10613;50.966;5.814;2023-04-24T23:22:05;4.00;;;4.00;;
20906;SDS011;10613;50.966;5.814;2023-04-24T23:26:05;2.00;;;2.00;;
20906;SDS011;10613;50.966;5.814;2023-04-24T23:30:06;3.50;;;3.50;;
20906;SDS011;10613;50.966;5.814;2023-04-24T23:34:07;3.50;;;3.50;;
20906;SDS011;10613;50.966;5.814;2023-04-24T23:38:07;2.00;;;2.00;;
20906;SDS011;10613;50.966;5.814;2023-04-24T23:42:07;2.00;;;2.00;;
20906;SDS011;10613;50.966;5.814;2023-04-24T23:46:08;2.00;;;2.00;;
20906;SDS011;10613;50.966;5.814;2023-04-24T23:50:08;4.00;;;4.00;;
20906;SDS011;10613;50.966;5.814;2023-04-24T23:54:09;2.00;;;2.00;;
20906;SDS011;10613;50.966;5.814;2023-04-24T23:58:10;4.00;;;4.00;;
